Mao, Dominican Republic
Current Conditions -  °F | °C
As of 8:00 PM on Wednesday 26 Nov 2014 (Local Time) from MDST Reporting Station
Few Clouds Few Clouds  
Wind Chill: 24°   Ceiling: Unl
Heat Index: 24°   Visibility: 6mi
Dew Point: 23°   Wind: 6mph
Humidity: 94%   Direction: 170°S
Pressure: 30"   Gusts: NA
Location:  19.56°N, 71.08°W
Report Text: MDST 270000Z 17005KT 9999 FEW018 24/23 Q1016 NOSIG
Loading
Personal Weather Stations






























Interactive Weather Map New forecast layout! Learn more

10-Day Weather Forecast

Advertisements
Track Severe Weather on mobile